sensor_id;sensor_type;location;lat;lon;timestamp;temperature;humidity
70475;DHT22;57944;48.722;9.316;2023-04-23T00:02:14;13.50;99.90
70475;DHT22;57944;48.722;9.316;2023-04-23T00:04:46;13.60;99.90
70475;DHT22;57944;48.722;9.316;2023-04-23T00:07:19;13.60;99.90
70475;DHT22;57944;48.722;9.316;2023-04-23T00:09:52;13.50;99.90
70475;DHT22;57944;48.722;9.316;2023-04-23T00:12:27;13.60;99.90
70475;DHT22;57944;48.722;9.316;2023-04-23T00:14:58;13.60;99.90
70475;DHT22;57944;48.722;9.316;2023-04-23T00:17:29;13.60;99.90
70475;DHT22;57944;48.722;9.316;2023-04-23T00:19:59;13.60;99.90
70475;DHT22;57944;48.722;9.316;2023-04-23T00:22:29;13.50;99.90
70475;DHT22;57944;48.722;9.316;2023-04-23T00:25:02;13.30;99.90
70475;DHT22;57944;48.722;9.316;2023-04-23T00:27:32;13.40;99.90
70475;DHT22;57944;48.722;9.316;2023-04-23T00:30:02;13.40;99.90
70475;DHT22;57944;48.722;9.316;2023-04-23T00:32:32;13.30;99.90
70475;DHT22;57944;48.722;9.316;2023-04-23T00:35:03;13.40;99.90
70475;DHT22;57944;48.722;9.316;2023-04-23T00:37:37;13.40;99.90
70475;DHT22;57944;48.722;9.316;2023-04-23T00:40:10;13.40;99.90
70475;DHT22;57944;48.722;9.316;2023-04-23T00:42:40;13.40;99.90
70475;DHT22;57944;48.722;9.316;2023-04-23T00:45:10;13.40;99.90
70475;DHT22;57944;48.722;9.316;2023-04-23T00:47:40;13.30;99.90
70475;DHT22;57944;48.722;9.316;2023-04-23T00:50:12;13.30;99.90
70475;DHT22;57944;48.722;9.316;2023-04-23T00:52:41;13.30;99.90
70475;DHT22;57944;48.722;9.316;2023-04-23T00:55:14;13.20;99.90
70475;DHT22;57944;48.722;9.316;2023-04-23T00:57:47;13.20;99.90
70475;DHT22;57944;48.722;9.316;2023-04-23T01:00:17;13.10;99.90
70475;DHT22;57944;48.722;9.316;2023-04-23T01:02:48;13.00;99.90
70475;DHT22;57944;48.722;9.316;2023-04-23T01:05:19;12.80;99.90
70475;DHT22;57944;48.722;9.316;2023-04-23T01:07:51;12.80;99.90
70475;DHT22;57944;48.722;9.316;2023-04-23T01:10:26;12.70;99.90
70475;DHT22;57944;48.722;9.316;2023-04-23T01:12:58;12.60;99.90
70475;DHT22;57944;48.722;9.316;2023-04-23T01:15:28;12.40;99.90
70475;DHT22;57944;48.722;9.316;2023-04-23T01:17:58;12.30;99.90
70475;DHT22;57944;48.722;9.316;2023-04-23T01:20:30;12.20;99.90
70475;DHT22;57944;48.722;9.316;2023-04-23T01:23:03;12.10;99.90
70475;DHT22;57944;48.722;9.316;2023-04-23T01:25:34;12.00;99.90
70475;DHT22;57944;48.722;9.316;2023-04-23T01:28:04;11.80;99.90
70475;DHT22;57944;48.722;9.316;2023-04-23T01:30:35;11.80;99.90
70475;DHT22;57944;48.722;9.316;2023-04-23T01:33:05;11.70;99.90
70475;DHT22;57944;48.722;9.316;2023-04-23T01:35:37;11.70;99.90
70475;DHT22;57944;48.722;9.316;2023-04-23T01:38:11;11.70;99.90
70475;DHT22;57944;48.722;9.316;2023-04-23T01:40:43;11.80;99.90
70475;DHT22;57944;48.722;9.316;2023-04-23T01:43:13;11.80;99.90
70475;DHT22;57944;48.722;9.316;2023-04-23T01:45:44;11.80;99.90
70475;DHT22;57944;48.722;9.316;2023-04-23T01:53:17;11.80;99.90
70475;DHT22;57944;48.722;9.316;2023-04-23T01:55:47;11.80;99.90
70475;DHT22;57944;48.722;9.316;2023-04-23T01:58:19;11.90;99.90
70475;DHT22;57944;48.722;9.316;2023-04-23T02:00:51;11.80;99.90
70475;DHT22;57944;48.722;9.316;2023-04-23T02:03:22;11.80;99.90
70475;DHT22;57944;48.722;9.316;2023-04-23T02:05:52;11.80;99.90
70475;DHT22;57944;48.722;9.316;2023-04-23T02:08:26;11.80;99.90
70475;DHT22;57944;48.722;9.316;2023-04-23T02:10:57;11.70;99.90
70475;DHT22;57944;48.722;9.316;2023-04-23T02:13:27;11.70;99.90
70475;DHT22;57944;48.722;9.316;2023-04-23T02:15:57;11.90;99.90
70475;DHT22;57944;48.722;9.316;2023-04-23T02:18:27;11.90;99.90
70475;DHT22;57944;48.722;9.316;2023-04-23T02:20:57;11.90;99.90
70475;DHT22;57944;48.722;9.316;2023-04-23T02:23:31;11.90;99.90
70475;DHT22;57944;48.722;9.316;2023-04-23T02:26:01;11.70;99.90
70475;DHT22;57944;48.722;9.316;2023-04-23T02:28:31;11.80;99.90
70475;DHT22;57944;48.722;9.316;2023-04-23T02:31:01;11.90;99.90
70475;DHT22;57944;48.722;9.316;2023-04-23T02:33:31;11.90;99.90
70475;DHT22;57944;48.722;9.316;2023-04-23T02:36:01;11.80;99.90
70475;DHT22;57944;48.722;9.316;2023-04-23T02:38:34;11.90;99.90
70475;DHT22;57944;48.722;9.316;2023-04-23T02:41:07;11.90;99.90
70475;DHT22;57944;48.722;9.316;2023-04-23T02:43:37;11.90;99.90
70475;DHT22;57944;48.722;9.316;2023-04-23T02:46:07;11.90;99.90
70475;DHT22;57944;48.722;9.316;2023-04-23T02:48:37;11.80;99.90
70475;DHT22;57944;48.722;9.316;2023-04-23T02:51:09;11.80;99.90
70475;DHT22;57944;48.722;9.316;2023-04-23T02:53:43;11.80;99.90
70475;DHT22;57944;48.722;9.316;2023-04-23T02:56:13;11.80;99.90
70475;DHT22;57944;48.722;9.316;2023-04-23T02:58:43;11.70;99.90
70475;DHT22;57944;48.722;9.316;2023-04-23T03:01:13;11.80;99.90
70475;DHT22;57944;48.722;9.316;2023-04-23T03:03:43;11.80;99.90
70475;DHT22;57944;48.722;9.316;2023-04-23T03:06:14;11.80;99.90
70475;DHT22;57944;48.722;9.316;2023-04-23T03:08:47;11.80;99.90
70475;DHT22;57944;48.722;9.316;2023-04-23T03:11:17;11.80;99.90
70475;DHT22;57944;48.722;9.316;2023-04-23T03:13:46;11.80;99.90
70475;DHT22;57944;48.722;9.316;2023-04-23T03:16:17;11.80;99.90
70475;DHT22;57944;48.722;9.316;2023-04-23T03:18:47;11.80;99.90
70475;DHT22;57944;48.722;9.316;2023-04-23T03:21:17;11.80;99.90
70475;DHT22;57944;48.722;9.316;2023-04-23T03:23:51;11.80;99.90
70475;DHT22;57944;48.722;9.316;2023-04-23T03:26:21;11.70;99.90
70475;DHT22;57944;48.722;9.316;2023-04-23T03:28:51;11.60;99.90
70475;DHT22;57944;48.722;9.316;2023-04-23T03:31:21;11.60;99.90
70475;DHT22;57944;48.722;9.316;2023-04-23T03:33:51;11.60;99.90
70475;DHT22;57944;48.722;9.316;2023-04-23T03:36:28;11.70;99.90
70475;DHT22;57944;48.722;9.316;2023-04-23T03:39:02;11.60;99.90
70475;DHT22;57944;48.722;9.316;2023-04-23T03:41:46;11.60;99.90
70475;DHT22;57944;48.722;9.316;2023-04-23T03:44:19;11.60;99.90
70475;DHT22;57944;48.722;9.316;2023-04-23T03:46:49;11.60;99.90
70475;DHT22;57944;48.722;9.316;2023-04-23T03:49:20;11.60;99.90
70475;DHT22;57944;48.722;9.316;2023-04-23T03:51:49;11.60;99.90
70475;DHT22;57944;48.722;9.316;2023-04-23T03:54:22;11.60;99.90
70475;DHT22;57944;48.722;9.316;2023-04-23T03:57:03;11.50;99.90
70475;DHT22;57944;48.722;9.316;2023-04-23T03:59:37;11.50;99.90
70475;DHT22;57944;48.722;9.316;2023-04-23T04:02:07;11.40;99.90
70475;DHT22;57944;48.722;9.316;2023-04-23T04:04:37;11.40;99.90
70475;DHT22;57944;48.722;9.316;2023-04-23T04:07:09;11.40;99.90
70475;DHT22;57944;48.722;9.316;2023-04-23T04:09:41;11.30;99.90
70475;DHT22;57944;48.722;9.316;2023-04-23T04:12:12;11.30;99.90
70475;DHT22;57944;48.722;9.316;2023-04-23T04:14:42;11.30;99.90
70475;DHT22;57944;48.722;9.316;2023-04-23T04:17:12;11.40;99.90
70475;DHT22;57944;48.722;9.316;2023-04-23T04:19:42;11.40;99.90
70475;DHT22;57944;48.722;9.316;2023-04-23T04:22:13;11.40;99.90
70475;DHT22;57944;48.722;9.316;2023-04-23T04:24:45;11.40;99.90
70475;DHT22;57944;48.722;9.316;2023-04-23T04:27:18;11.50;99.90
70475;DHT22;57944;48.722;9.316;2023-04-23T04:29:48;11.60;99.90
70475;DHT22;57944;48.722;9.316;2023-04-23T04:32:18;11.50;99.90
70475;DHT22;57944;48.722;9.316;2023-04-23T04:34:49;11.50;99.90
70475;DHT22;57944;48.722;9.316;2023-04-23T04:37:19;11.50;99.90
70475;DHT22;57944;48.722;9.316;2023-04-23T04:39:52;11.60;99.90
70475;DHT22;57944;48.722;9.316;2023-04-23T04:42:22;11.60;99.90
70475;DHT22;57944;48.722;9.316;2023-04-23T04:44:52;11.50;99.90
70475;DHT22;57944;48.722;9.316;2023-04-23T04:47:24;11.60;99.90
70475;DHT22;57944;48.722;9.316;2023-04-23T04:49:54;11.60;99.90
70475;DHT22;57944;48.722;9.316;2023-04-23T04:52:26;11.50;99.90
70475;DHT22;57944;48.722;9.316;2023-04-23T04:54:58;11.50;99.90
70475;DHT22;57944;48.722;9.316;2023-04-23T04:57:28;11.50;99.90
70475;DHT22;57944;48.722;9.316;2023-04-23T05:00:00;11.40;99.90
70475;DHT22;57944;48.722;9.316;2023-04-23T05:02:48;11.40;99.90
70475;DHT22;57944;48.722;9.316;2023-04-23T05:05:20;11.40;99.90
70475;DHT22;57944;48.722;9.316;2023-04-23T05:07:51;11.40;99.90
70475;DHT22;57944;48.722;9.316;2023-04-23T05:10:27;11.50;99.90
70475;DHT22;57944;48.722;9.316;2023-04-23T05:12:58;11.50;99.90
70475;DHT22;57944;48.722;9.316;2023-04-23T05:15:28;11.50;99.90
70475;DHT22;57944;48.722;9.316;2023-04-23T05:17:58;11.60;99.90
70475;DHT22;57944;48.722;9.316;2023-04-23T05:20:28;11.70;99.90
70475;DHT22;57944;48.722;9.316;2023-04-23T05:22:58;11.60;99.90
70475;DHT22;57944;48.722;9.316;2023-04-23T05:25:31;11.80;99.90
70475;DHT22;57944;48.722;9.316;2023-04-23T05:28:01;11.90;99.90
70475;DHT22;57944;48.722;9.316;2023-04-23T05:30:31;12.00;99.90
70475;DHT22;57944;48.722;9.316;2023-04-23T05:33:01;12.00;99.90
70475;DHT22;57944;48.722;9.316;2023-04-23T05:35:31;11.90;99.90
70475;DHT22;57944;48.722;9.316;2023-04-23T05:38:01;12.00;99.90
70475;DHT22;57944;48.722;9.316;2023-04-23T05:40:34;12.20;99.90
70475;DHT22;57944;48.722;9.316;2023-04-23T05:43:04;12.60;99.90
70475;DHT22;57944;48.722;9.316;2023-04-23T05:45:34;13.50;99.90
70475;DHT22;57944;48.722;9.316;2023-04-23T05:48:04;14.90;99.90
70475;DHT22;57944;48.722;9.316;2023-04-23T05:50:34;15.60;99.90
70475;DHT22;57944;48.722;9.316;2023-04-23T05:53:04;15.50;99.90
70475;DHT22;57944;48.722;9.316;2023-04-23T05:55:37;15.30;99.90
70475;DHT22;57944;48.722;9.316;2023-04-23T05:58:07;15.00;99.90
70475;DHT22;57944;48.722;9.316;2023-04-23T06:00:37;15.00;99.90
70475;DHT22;57944;48.722;9.316;2023-04-23T06:03:07;15.00;99.90
70475;DHT22;57944;48.722;9.316;2023-04-23T06:05:37;15.60;99.90
70475;DHT22;57944;48.722;9.316;2023-04-23T06:08:08;15.70;99.90
70475;DHT22;57944;48.722;9.316;2023-04-23T06:10:41;15.30;99.90
70475;DHT22;57944;48.722;9.316;2023-04-23T06:13:11;15.30;99.90
70475;DHT22;57944;48.722;9.316;2023-04-23T06:15:41;15.40;99.90
70475;DHT22;57944;48.722;9.316;2023-04-23T06:18:11;16.90;99.90
70475;DHT22;57944;48.722;9.316;2023-04-23T06:20:41;18.90;99.90
70475;DHT22;57944;48.722;9.316;2023-04-23T06:23:13;20.20;99.90
70475;DHT22;57944;48.722;9.316;2023-04-23T06:25:45;19.90;99.90
70475;DHT22;57944;48.722;9.316;2023-04-23T06:28:15;19.10;99.90
70475;DHT22;57944;48.722;9.316;2023-04-23T06:31:05;18.00;99.90
70475;DHT22;57944;48.722;9.316;2023-04-23T06:33:35;17.60;99.90
70475;DHT22;57944;48.722;9.316;2023-04-23T06:36:06;17.20;99.90
70475;DHT22;57944;48.722;9.316;2023-04-23T06:38:36;17.10;99.90
70475;DHT22;57944;48.722;9.316;2023-04-23T06:41:09;17.00;99.90
70475;DHT22;57944;48.722;9.316;2023-04-23T06:43:39;17.20;99.90
70475;DHT22;57944;48.722;9.316;2023-04-23T06:46:29;17.40;99.90
70475;DHT22;57944;48.722;9.316;2023-04-23T06:48:59;17.30;99.90
70475;DHT22;57944;48.722;9.316;2023-04-23T06:51:29;17.20;99.90
70475;DHT22;57944;48.722;9.316;2023-04-23T06:53:59;17.20;99.90
70475;DHT22;57944;48.722;9.316;2023-04-23T06:56:32;17.20;99.90
70475;DHT22;57944;48.722;9.316;2023-04-23T06:59:02;17.50;99.90
70475;DHT22;57944;48.722;9.316;2023-04-23T07:01:34;17.70;99.90
70475;DHT22;57944;48.722;9.316;2023-04-23T07:04:04;18.10;99.90
70475;DHT22;57944;48.722;9.316;2023-04-23T07:06:34;18.20;99.90
70475;DHT22;57944;48.722;9.316;2023-04-23T07:09:04;17.70;99.90
70475;DHT22;57944;48.722;9.316;2023-04-23T07:11:37;17.60;99.90
70475;DHT22;57944;48.722;9.316;2023-04-23T07:14:07;17.40;99.90
70475;DHT22;57944;48.722;9.316;2023-04-23T07:16:37;17.50;99.90
70475;DHT22;57944;48.722;9.316;2023-04-23T07:19:07;17.30;99.90
70475;DHT22;57944;48.722;9.316;2023-04-23T07:21:37;16.90;99.90
70475;DHT22;57944;48.722;9.316;2023-04-23T07:24:07;16.50;99.90
70475;DHT22;57944;48.722;9.316;2023-04-23T07:26:40;16.70;99.90
70475;DHT22;57944;48.722;9.316;2023-04-23T07:29:10;18.60;99.90
70475;DHT22;57944;48.722;9.316;2023-04-23T07:31:41;20.90;99.90
70475;DHT22;57944;48.722;9.316;2023-04-23T07:34:11;22.80;99.90
70475;DHT22;57944;48.722;9.316;2023-04-23T07:36:41;24.60;99.90
70475;DHT22;57944;48.722;9.316;2023-04-23T07:39:11;25.20;99.00
70475;DHT22;57944;48.722;9.316;2023-04-23T07:41:44;26.20;97.40
70475;DHT22;57944;48.722;9.316;2023-04-23T07:44:14;26.80;95.70
70475;DHT22;57944;48.722;9.316;2023-04-23T07:46:44;25.90;96.00
70475;DHT22;57944;48.722;9.316;2023-04-23T07:49:14;26.40;95.90
70475;DHT22;57944;48.722;9.316;2023-04-23T07:51:44;27.70;94.00
70475;DHT22;57944;48.722;9.316;2023-04-23T07:54:13;27.80;93.00
70475;DHT22;57944;48.722;9.316;2023-04-23T07:56:46;28.10;92.20
70475;DHT22;57944;48.722;9.316;2023-04-23T07:59:16;28.10;91.10
70475;DHT22;57944;48.722;9.316;2023-04-23T08:01:46;27.80;90.90
70475;DHT22;57944;48.722;9.316;2023-04-23T08:04:16;26.40;91.60
70475;DHT22;57944;48.722;9.316;2023-04-23T08:06:46;25.80;92.20
70475;DHT22;57944;48.722;9.316;2023-04-23T08:09:16;25.10;91.70
70475;DHT22;57944;48.722;9.316;2023-04-23T08:11:49;24.50;92.90
70475;DHT22;57944;48.722;9.316;2023-04-23T08:14:20;23.40;92.70
70475;DHT22;57944;48.722;9.316;2023-04-23T08:16:50;22.10;94.70
70475;DHT22;57944;48.722;9.316;2023-04-23T08:19:20;21.30;95.00
70475;DHT22;57944;48.722;9.316;2023-04-23T08:21:50;20.80;95.80
70475;DHT22;57944;48.722;9.316;2023-04-23T08:24:20;19.90;97.20
70475;DHT22;57944;48.722;9.316;2023-04-23T08:26:52;19.20;98.10
70475;DHT22;57944;48.722;9.316;2023-04-23T08:29:23;19.10;99.90
70475;DHT22;57944;48.722;9.316;2023-04-23T08:31:53;20.50;98.90
70475;DHT22;57944;48.722;9.316;2023-04-23T08:34:23;22.10;96.10
70475;DHT22;57944;48.722;9.316;2023-04-23T08:36:53;22.30;95.40
70475;DHT22;57944;48.722;9.316;2023-04-23T08:39:23;22.40;95.70
70475;DHT22;57944;48.722;9.316;2023-04-23T08:41:56;22.10;96.20
70475;DHT22;57944;48.722;9.316;2023-04-23T08:44:33;21.60;95.70
70475;DHT22;57944;48.722;9.316;2023-04-23T08:47:04;21.10;95.80
70475;DHT22;57944;48.722;9.316;2023-04-23T08:49:40;21.10;95.80
70475;DHT22;57944;48.722;9.316;2023-04-23T08:52:14;20.90;96.50
70475;DHT22;57944;48.722;9.316;2023-04-23T08:54:48;22.10;96.70
70475;DHT22;57944;48.722;9.316;2023-04-23T08:57:21;22.50;95.60
70475;DHT22;57944;48.722;9.316;2023-04-23T08:59:53;22.10;94.40
70475;DHT22;57944;48.722;9.316;2023-04-23T09:02:24;22.50;94.40
70475;DHT22;57944;48.722;9.316;2023-04-23T09:04:55;22.80;93.80
70475;DHT22;57944;48.722;9.316;2023-04-23T09:07:25;22.70;93.90
70475;DHT22;57944;48.722;9.316;2023-04-23T09:09:55;22.80;93.40
70475;DHT22;57944;48.722;9.316;2023-04-23T09:12:27;23.10;94.10
70475;DHT22;57944;48.722;9.316;2023-04-23T09:14:58;23.60;94.70
70475;DHT22;57944;48.722;9.316;2023-04-23T09:17:28;25.10;92.80
70475;DHT22;57944;48.722;9.316;2023-04-23T09:19:58;26.30;91.20
70475;DHT22;57944;48.722;9.316;2023-04-23T09:22:37;27.60;89.00
70475;DHT22;57944;48.722;9.316;2023-04-23T09:25:12;28.10;87.00
70475;DHT22;57944;48.722;9.316;2023-04-23T09:27:46;27.70;88.80
70475;DHT22;57944;48.722;9.316;2023-04-23T09:30:18;27.20;87.10
70475;DHT22;57944;48.722;9.316;2023-04-23T09:32:51;27.40;84.10
70475;DHT22;57944;48.722;9.316;2023-04-23T09:35:21;28.10;82.40
70475;DHT22;57944;48.722;9.316;2023-04-23T09:37:51;28.10;82.70
70475;DHT22;57944;48.722;9.316;2023-04-23T09:40:22;28.40;80.80
70475;DHT22;57944;48.722;9.316;2023-04-23T09:42:55;29.40;79.00
70475;DHT22;57944;48.722;9.316;2023-04-23T09:45:25;30.70;77.40
70475;DHT22;57944;48.722;9.316;2023-04-23T09:47:58;31.60;72.50
70475;DHT22;57944;48.722;9.316;2023-04-23T09:50:32;29.30;75.20
70475;DHT22;57944;48.722;9.316;2023-04-23T09:53:03;27.80;76.10
70475;DHT22;57944;48.722;9.316;2023-04-23T09:55:34;27.10;75.00
70475;DHT22;57944;48.722;9.316;2023-04-23T09:58:12;27.20;80.50
70475;DHT22;57944;48.722;9.316;2023-04-23T10:00:43;27.40;77.90
70475;DHT22;57944;48.722;9.316;2023-04-23T10:03:13;26.60;77.30
70475;DHT22;57944;48.722;9.316;2023-04-23T10:05:43;27.30;76.80
70475;DHT22;57944;48.722;9.316;2023-04-23T10:08:27;27.80;76.30
70475;DHT22;57944;48.722;9.316;2023-04-23T10:10:57;28.80;75.60
70475;DHT22;57944;48.722;9.316;2023-04-23T10:13:48;30.10;73.40
70475;DHT22;57944;48.722;9.316;2023-04-23T10:16:18;29.90;70.70
70475;DHT22;57944;48.722;9.316;2023-04-23T10:18:58;29.10;69.80
70475;DHT22;57944;48.722;9.316;2023-04-23T10:21:30;29.50;68.50
70475;DHT22;57944;48.722;9.316;2023-04-23T10:24:18;30.50;68.50
70475;DHT22;57944;48.722;9.316;2023-04-23T10:26:51;31.70;67.80
70475;DHT22;57944;48.722;9.316;2023-04-23T10:29:31;32.70;64.60
70475;DHT22;57944;48.722;9.316;2023-04-23T10:32:02;31.90;61.90
70475;DHT22;57944;48.722;9.316;2023-04-23T10:34:33;31.20;63.40
70475;DHT22;57944;48.722;9.316;2023-04-23T10:37:03;30.60;62.70
70475;DHT22;57944;48.722;9.316;2023-04-23T10:39:34;32.10;61.60
70475;DHT22;57944;48.722;9.316;2023-04-23T10:42:05;31.40;60.50
70475;DHT22;57944;48.722;9.316;2023-04-23T10:44:38;30.80;61.60
70475;DHT22;57944;48.722;9.316;2023-04-23T10:47:24;30.40;60.80
70475;DHT22;57944;48.722;9.316;2023-04-23T10:49:54;30.60;62.00
70475;DHT22;57944;48.722;9.316;2023-04-23T10:52:24;30.40;63.60
70475;DHT22;57944;48.722;9.316;2023-04-23T10:54:57;29.30;63.30
70475;DHT22;57944;48.722;9.316;2023-04-23T10:57:27;28.10;64.30
70475;DHT22;57944;48.722;9.316;2023-04-23T11:00:00;27.20;65.40
70475;DHT22;57944;48.722;9.316;2023-04-23T11:02:41;26.90;67.10
70475;DHT22;57944;48.722;9.316;2023-04-23T11:05:12;26.80;67.40
70475;DHT22;57944;48.722;9.316;2023-04-23T11:07:44;26.60;66.80
70475;DHT22;57944;48.722;9.316;2023-04-23T11:10:53;26.00;68.40
70475;DHT22;57944;48.722;9.316;2023-04-23T11:13:25;27.10;67.20
70475;DHT22;57944;48.722;9.316;2023-04-23T11:18:53;31.00;63.70
70475;DHT22;57944;48.722;9.316;2023-04-23T11:24:26;30.60;62.00
70475;DHT22;57944;48.722;9.316;2023-04-23T11:26:56;29.60;62.60
70475;DHT22;57944;48.722;9.316;2023-04-23T11:29:27;29.50;60.90
70475;DHT22;57944;48.722;9.316;2023-04-23T11:31:59;29.50;60.10
70475;DHT22;57944;48.722;9.316;2023-04-23T11:34:31;29.50;61.20
70475;DHT22;57944;48.722;9.316;2023-04-23T11:37:02;28.40;62.90
70475;DHT22;57944;48.722;9.316;2023-04-23T11:39:32;29.70;62.30
70475;DHT22;57944;48.722;9.316;2023-04-23T11:42:03;31.10;59.30
70475;DHT22;57944;48.722;9.316;2023-04-23T11:44:36;32.40;58.70
70475;DHT22;57944;48.722;9.316;2023-04-23T11:47:10;33.10;58.10
70475;DHT22;57944;48.722;9.316;2023-04-23T11:49:42;33.10;57.50
70475;DHT22;57944;48.722;9.316;2023-04-23T11:52:13;33.00;57.30
70475;DHT22;57944;48.722;9.316;2023-04-23T11:54:43;31.80;57.40
70475;DHT22;57944;48.722;9.316;2023-04-23T11:57:13;31.20;58.20
70475;DHT22;57944;48.722;9.316;2023-04-23T11:59:43;29.80;60.50
70475;DHT22;57944;48.722;9.316;2023-04-23T12:02:15;29.80;59.30
70475;DHT22;57944;48.722;9.316;2023-04-23T12:04:45;30.10;59.90
70475;DHT22;57944;48.722;9.316;2023-04-23T12:07:15;30.60;59.70
70475;DHT22;57944;48.722;9.316;2023-04-23T12:09:52;30.60;59.60
70475;DHT22;57944;48.722;9.316;2023-04-23T12:12:31;30.60;58.60
70475;DHT22;57944;48.722;9.316;2023-04-23T12:15:02;29.30;58.40
70475;DHT22;57944;48.722;9.316;2023-04-23T12:17:35;29.30;59.20
70475;DHT22;57944;48.722;9.316;2023-04-23T12:20:08;29.90;59.60
70475;DHT22;57944;48.722;9.316;2023-04-23T12:22:40;29.00;59.80
70475;DHT22;57944;48.722;9.316;2023-04-23T12:25:10;29.10;60.70
70475;DHT22;57944;48.722;9.316;2023-04-23T12:27:40;29.20;60.60
70475;DHT22;57944;48.722;9.316;2023-04-23T12:30:13;28.50;61.80
70475;DHT22;57944;48.722;9.316;2023-04-23T12:32:45;28.60;61.10
70475;DHT22;57944;48.722;9.316;2023-04-23T12:35:15;28.20;60.30
70475;DHT22;57944;48.722;9.316;2023-04-23T12:37:45;28.20;60.90
70475;DHT22;57944;48.722;9.316;2023-04-23T12:40:15;27.90;61.50
70475;DHT22;57944;48.722;9.316;2023-04-23T12:42:45;26.70;61.80
70475;DHT22;57944;48.722;9.316;2023-04-23T12:45:15;25.80;65.50
70475;DHT22;57944;48.722;9.316;2023-04-23T12:47:48;24.70;68.40
70475;DHT22;57944;48.722;9.316;2023-04-23T12:50:18;24.20;68.30
70475;DHT22;57944;48.722;9.316;2023-04-23T12:52:47;24.30;68.30
70475;DHT22;57944;48.722;9.316;2023-04-23T12:55:17;24.30;68.70
70475;DHT22;57944;48.722;9.316;2023-04-23T12:57:47;24.50;68.10
70475;DHT22;57944;48.722;9.316;2023-04-23T13:00:18;24.80;67.60
70475;DHT22;57944;48.722;9.316;2023-04-23T13:02:50;25.40;68.00
70475;DHT22;57944;48.722;9.316;2023-04-23T13:05:21;25.90;67.50
70475;DHT22;57944;48.722;9.316;2023-04-23T13:07:51;25.70;67.40
70475;DHT22;57944;48.722;9.316;2023-04-23T13:10:22;26.90;66.20
70475;DHT22;57944;48.722;9.316;2023-04-23T13:12:52;27.90;65.30
70475;DHT22;57944;48.722;9.316;2023-04-23T13:15:22;27.40;64.10
70475;DHT22;57944;48.722;9.316;2023-04-23T13:17:55;26.60;66.30
70475;DHT22;57944;48.722;9.316;2023-04-23T13:20:25;26.10;65.90
70475;DHT22;57944;48.722;9.316;2023-04-23T13:22:55;25.30;66.90
70475;DHT22;57944;48.722;9.316;2023-04-23T13:25:25;24.70;67.10
70475;DHT22;57944;48.722;9.316;2023-04-23T13:27:55;25.00;69.20
70475;DHT22;57944;48.722;9.316;2023-04-23T13:30:24;25.10;67.00
70475;DHT22;57944;48.722;9.316;2023-04-23T13:32:57;25.00;67.40
70475;DHT22;57944;48.722;9.316;2023-04-23T13:35:27;24.60;66.70
70475;DHT22;57944;48.722;9.316;2023-04-23T13:37:57;24.40;68.00
70475;DHT22;57944;48.722;9.316;2023-04-23T13:40:27;24.40;68.10
70475;DHT22;57944;48.722;9.316;2023-04-23T13:42:57;24.70;67.00
70475;DHT22;57944;48.722;9.316;2023-04-23T13:45:27;26.00;67.70
70475;DHT22;57944;48.722;9.316;2023-04-23T13:48:00;27.00;64.40
70475;DHT22;57944;48.722;9.316;2023-04-23T13:50:30;26.50;63.80
70475;DHT22;57944;48.722;9.316;2023-04-23T13:53:00;25.70;64.90
70475;DHT22;57944;48.722;9.316;2023-04-23T13:55:30;25.00;65.60
70475;DHT22;57944;48.722;9.316;2023-04-23T13:58:00;24.20;66.80
70475;DHT22;57944;48.722;9.316;2023-04-23T14:00:30;24.10;67.30
70475;DHT22;57944;48.722;9.316;2023-04-23T14:03:03;23.90;67.40
70475;DHT22;57944;48.722;9.316;2023-04-23T14:05:33;24.30;67.60
70475;DHT22;57944;48.722;9.316;2023-04-23T14:08:04;24.30;66.70
70475;DHT22;57944;48.722;9.316;2023-04-23T14:10:34;24.30;66.90
70475;DHT22;57944;48.722;9.316;2023-04-23T14:13:04;25.30;66.10
70475;DHT22;57944;48.722;9.316;2023-04-23T14:15:34;27.00;64.50
70475;DHT22;57944;48.722;9.316;2023-04-23T14:18:06;27.80;64.40
70475;DHT22;57944;48.722;9.316;2023-04-23T14:20:36;28.40;62.50
70475;DHT22;57944;48.722;9.316;2023-04-23T14:23:10;28.20;63.40
70475;DHT22;57944;48.722;9.316;2023-04-23T14:26:20;28.20;63.00
70475;DHT22;57944;48.722;9.316;2023-04-23T14:29:17;28.00;62.80
70475;DHT22;57944;48.722;9.316;2023-04-23T14:31:51;27.60;63.10
70475;DHT22;57944;48.722;9.316;2023-04-23T14:34:24;28.10;61.90
70475;DHT22;57944;48.722;9.316;2023-04-23T14:36:54;28.40;62.00
70475;DHT22;57944;48.722;9.316;2023-04-23T14:39:24;28.70;61.90
70475;DHT22;57944;48.722;9.316;2023-04-23T14:41:55;28.10;62.10
70475;DHT22;57944;48.722;9.316;2023-04-23T14:44:25;27.60;61.60
70475;DHT22;57944;48.722;9.316;2023-04-23T14:46:55;27.20;62.00
70475;DHT22;57944;48.722;9.316;2023-04-23T14:49:27;26.50;64.50
70475;DHT22;57944;48.722;9.316;2023-04-23T14:51:57;26.20;64.50
70475;DHT22;57944;48.722;9.316;2023-04-23T14:54:27;26.30;65.20
70475;DHT22;57944;48.722;9.316;2023-04-23T14:56:57;26.00;65.30
70475;DHT22;57944;48.722;9.316;2023-04-23T14:59:27;25.90;64.60
70475;DHT22;57944;48.722;9.316;2023-04-23T15:01:58;26.10;64.00
70475;DHT22;57944;48.722;9.316;2023-04-23T15:04:31;25.80;64.50
70475;DHT22;57944;48.722;9.316;2023-04-23T15:07:03;25.40;64.30
70475;DHT22;57944;48.722;9.316;2023-04-23T15:09:33;25.60;66.60
70475;DHT22;57944;48.722;9.316;2023-04-23T15:12:04;25.50;65.80
70475;DHT22;57944;48.722;9.316;2023-04-23T15:14:35;25.90;65.80
70475;DHT22;57944;48.722;9.316;2023-04-23T15:17:06;25.90;65.30
70475;DHT22;57944;48.722;9.316;2023-04-23T15:19:38;25.90;65.20
70475;DHT22;57944;48.722;9.316;2023-04-23T15:25:04;25.00;66.80
70475;DHT22;57944;48.722;9.316;2023-04-23T15:27:35;24.80;65.70
70475;DHT22;57944;48.722;9.316;2023-04-23T15:30:06;24.80;67.90
70475;DHT22;57944;48.722;9.316;2023-04-23T15:32:36;24.80;66.80
70475;DHT22;57944;48.722;9.316;2023-04-23T15:35:09;24.70;67.30
70475;DHT22;57944;48.722;9.316;2023-04-23T15:37:39;24.60;67.30
70475;DHT22;57944;48.722;9.316;2023-04-23T15:40:09;24.20;70.30
70475;DHT22;57944;48.722;9.316;2023-04-23T15:42:40;23.80;70.70
70475;DHT22;57944;48.722;9.316;2023-04-23T15:45:10;23.40;71.60
70475;DHT22;57944;48.722;9.316;2023-04-23T15:47:40;22.70;71.50
70475;DHT22;57944;48.722;9.316;2023-04-23T15:50:13;21.80;69.30
70475;DHT22;57944;48.722;9.316;2023-04-23T15:52:46;20.30;76.20
70475;DHT22;57944;48.722;9.316;2023-04-23T19:52:42;11.30;99.90
70475;DHT22;57944;48.722;9.316;2023-04-23T19:55:12;11.10;99.90
70475;DHT22;57944;48.722;9.316;2023-04-23T19:57:43;11.00;99.90
70475;DHT22;57944;48.722;9.316;2023-04-23T20:00:13;10.90;99.90
70475;DHT22;57944;48.722;9.316;2023-04-23T20:02:44;10.90;99.90
70475;DHT22;57944;48.722;9.316;2023-04-23T20:05:14;10.90;99.90
70475;DHT22;57944;48.722;9.316;2023-04-23T20:07:47;10.90;99.90
70475;DHT22;57944;48.722;9.316;2023-04-23T20:10:17;10.80;99.90